createdAt,value
2018-09-12T02:58:59.410Z,4.87
2018-09-12T03:01:27.340Z,5.33
2018-09-12T03:04:12.246Z,4.73
2018-09-12T03:06:42.393Z,5.43
2018-09-12T03:09:10.534Z,4.80
2018-09-12T03:11:38.325Z,5.23
2018-09-12T03:14:06.253Z,5.40
2018-09-12T03:16:34.069Z,5.00
2018-09-12T03:19:01.901Z,5.30
2018-09-12T03:21:29.784Z,4.90
2018-09-12T03:23:57.673Z,4.67
2018-09-12T03:26:25.649Z,4.77
2018-09-12T03:28:53.734Z,5.37
2018-09-12T03:31:21.665Z,5.03
2018-09-12T03:33:49.477Z,5.20
2018-09-12T03:36:17.363Z,4.97
2018-09-12T03:38:45.202Z,5.57
2018-09-12T03:41:13.229Z,5.90
2018-09-12T03:43:41.033Z,5.30
2018-09-12T03:46:08.916Z,5.07
2018-09-12T03:48:36.843Z,5.53
2018-09-12T03:51:04.734Z,5.40
2018-09-12T03:53:32.494Z,5.47
2018-09-12T03:56:00.264Z,5.10
2018-09-12T03:58:28.090Z,5.27
2018-09-12T04:00:55.995Z,5.40
2018-09-12T04:03:23.881Z,5.63
2018-09-12T04:05:51.696Z,5.30
2018-09-12T04:08:19.583Z,4.67
2018-09-12T04:10:47.381Z,4.67
2018-09-12T04:13:15.192Z,4.60
2018-09-12T04:15:42.973Z,5.50
2018-09-12T04:18:10.898Z,5.83
2018-09-12T04:20:38.977Z,5.23
2018-09-12T04:23:06.845Z,4.90
2018-09-12T04:25:34.709Z,5.20
2018-09-12T04:28:02.856Z,5.30
2018-09-12T04:30:30.697Z,5.20
2018-09-12T04:32:58.494Z,5.57
2018-09-12T04:35:26.308Z,4.53
2018-09-12T04:37:54.109Z,4.87
2018-09-12T04:40:22.154Z,5.27
2018-09-12T04:42:50.040Z,5.07
2018-09-12T04:45:17.761Z,5.10
2018-09-12T04:47:45.513Z,4.83
2018-09-12T04:50:13.309Z,5.20
2018-09-12T04:52:41.081Z,5.17
2018-09-12T04:55:09.637Z,5.30
2018-09-12T04:57:37.405Z,5.37
2018-09-12T05:00:05.307Z,5.10
2018-09-12T05:02:33.096Z,5.30
2018-09-12T05:05:00.909Z,5.27
2018-09-12T05:07:28.693Z,5.50
2018-09-12T05:09:56.437Z,4.90
2018-09-12T05:12:24.382Z,4.20
2018-09-12T05:14:52.160Z,5.03
2018-09-12T05:17:20.065Z,4.63
2018-09-12T05:19:47.831Z,4.87
2018-09-12T05:22:15.636Z,5.23
2018-09-12T05:24:43.416Z,5.10
2018-09-12T05:27:11.227Z,5.07
2018-09-12T05:29:38.957Z,4.73
2018-09-12T05:32:06.724Z,5.50
2018-09-12T05:34:34.810Z,5.00
2018-09-12T05:37:02.873Z,4.63
2018-09-12T05:39:30.664Z,4.70
2018-09-12T05:41:58.460Z,4.90
2018-09-12T05:44:26.252Z,5.10
2018-09-12T05:46:54.189Z,5.17
2018-09-12T05:49:22.074Z,5.00
2018-09-12T05:51:49.853Z,5.03
2018-09-12T05:54:17.645Z,5.03
2018-09-12T05:56:45.436Z,5.00
2018-09-12T05:59:13.228Z,5.27
2018-09-12T06:01:41.045Z,5.30
2018-09-12T06:04:08.853Z,5.53
2018-09-12T06:06:37.984Z,5.20
2018-09-12T06:09:07.433Z,5.30
2018-09-12T06:11:35.233Z,5.63
2018-09-12T06:14:03.243Z,5.23
2018-09-12T06:16:31.037Z,4.97
2018-09-12T06:18:58.913Z,5.03
2018-09-12T06:21:26.902Z,5.30
2018-09-12T06:23:57.373Z,5.40
2018-09-12T06:26:25.300Z,4.63
2018-09-12T06:28:55.245Z,4.87
2018-09-12T06:31:23.287Z,5.03
2018-09-12T06:33:51.057Z,5.20
2018-09-12T06:36:19.161Z,5.17
2018-09-12T06:38:46.999Z,4.37
2018-09-12T06:41:14.912Z,5.10
2018-09-12T06:43:42.725Z,5.00
2018-09-12T06:46:10.517Z,5.00
2018-09-12T06:48:38.409Z,4.73
2018-09-12T06:51:06.205Z,5.47
2018-09-12T06:53:33.984Z,6.13
2018-09-12T06:56:02.586Z,5.47
2018-09-12T06:58:31.442Z,5.37
2018-09-12T07:00:59.239Z,4.97
2018-09-12T07:03:29.622Z,4.97
2018-09-12T07:05:58.733Z,4.83
2018-09-12T07:08:26.526Z,4.73
2018-09-12T07:10:54.501Z,4.80
2018-09-12T07:13:22.357Z,5.23
2018-09-12T07:15:50.110Z,5.17
2018-09-12T07:18:17.909Z,5.10
2018-09-12T07:20:45.692Z,5.27
2018-09-12T07:23:13.482Z,5.67
2018-09-12T07:25:41.272Z,5.30
2018-09-12T07:28:09.033Z,5.77
2018-09-12T07:30:36.920Z,5.63
2018-09-12T07:33:04.781Z,5.30
2018-09-12T07:35:32.801Z,5.47
2018-09-12T07:38:00.907Z,5.12
2018-09-12T07:40:28.677Z,4.65
2018-09-12T07:42:56.524Z,4.72
2018-09-12T07:45:24.373Z,4.70
2018-09-12T07:47:52.332Z,4.40
2018-09-12T07:50:20.204Z,4.45
2018-09-12T07:52:48.013Z,4.37
2018-09-12T07:55:15.840Z,4.60
2018-09-12T07:57:43.649Z,5.28
2018-09-12T08:00:11.515Z,5.03
2018-09-12T08:02:39.258Z,5.17
2018-09-12T08:05:07.195Z,5.40
2018-09-12T08:07:34.957Z,4.80
2018-09-12T08:10:03.318Z,5.00
2018-09-12T08:12:31.101Z,4.72
2018-09-12T08:14:58.907Z,4.90
2018-09-12T08:17:26.690Z,4.90
2018-09-12T08:19:54.758Z,4.70
2018-09-12T08:22:22.587Z,6.05
2018-09-12T08:24:50.356Z,4.50
2018-09-12T08:27:18.149Z,5.00
2018-09-12T08:29:45.916Z,4.72
2018-09-12T08:32:13.724Z,5.25
2018-09-12T08:34:41.480Z,4.87
2018-09-12T08:37:09.257Z,5.05
2018-09-12T08:39:37.012Z,4.87
2018-09-12T08:42:04.866Z,5.37
2018-09-12T08:44:32.661Z,5.53
2018-09-12T08:47:00.505Z,5.35
2018-09-12T08:49:28.556Z,5.15
2018-09-12T08:51:56.394Z,4.78
2018-09-12T08:54:24.169Z,4.97
2018-09-12T08:56:52.175Z,5.37
2018-09-12T08:59:19.941Z,5.37
2018-09-12T09:01:47.709Z,5.12
2018-09-12T09:04:15.554Z,5.10
2018-09-12T09:06:43.365Z,5.08
2018-09-12T09:09:11.870Z,4.30
2018-09-12T09:11:39.736Z,4.72
2018-09-12T09:14:07.780Z,5.80
2018-09-12T09:16:35.562Z,5.37
2018-09-12T09:19:03.341Z,5.37
2018-09-12T09:21:31.657Z,5.42
2018-09-12T09:23:59.517Z,4.97
2018-09-12T09:26:27.325Z,5.42
2018-09-12T09:28:55.457Z,5.45
2018-09-12T09:31:23.406Z,5.30
2018-09-12T09:33:51.193Z,5.30
2018-09-12T09:36:19.000Z,4.90
2018-09-12T09:38:46.877Z,5.53
2018-09-12T09:41:14.708Z,5.20
2018-09-12T09:43:42.697Z,5.35
2018-09-12T09:46:10.544Z,5.60
2018-09-12T09:48:38.493Z,5.55
2018-09-12T09:51:06.312Z,5.22
2018-09-12T09:53:34.277Z,5.00
2018-09-12T09:56:02.746Z,5.25
2018-09-12T09:58:30.555Z,5.50
2018-09-12T10:01:04.081Z,5.17
2018-09-12T10:03:37.417Z,5.75
2018-09-12T10:06:10.767Z,5.97
2018-09-12T10:08:44.105Z,5.67
2018-09-12T10:11:11.880Z,5.42
2018-09-12T10:13:39.638Z,4.97
2018-09-12T10:16:07.410Z,5.80
2018-09-12T10:18:35.213Z,6.00
2018-09-12T10:21:03.000Z,5.22
2018-09-12T10:23:30.865Z,5.42
2018-09-12T10:25:58.668Z,5.28
2018-09-12T10:28:26.504Z,5.97
2018-09-12T10:30:54.453Z,5.30
2018-09-12T10:33:22.272Z,6.08
2018-09-12T10:35:50.161Z,5.92
2018-09-12T10:38:18.012Z,6.75
2018-09-12T10:40:46.659Z,6.45
2018-09-12T10:43:15.628Z,6.67
2018-09-12T10:45:44.226Z,6.42
2018-09-12T10:48:12.165Z,6.78
2018-09-12T10:50:39.932Z,6.45
2018-09-12T10:53:08.149Z,6.37
2018-09-12T10:55:35.986Z,6.80
2018-09-12T10:58:04.163Z,6.30
2018-09-12T11:00:32.030Z,6.37
2018-09-12T11:02:59.945Z,6.25
2018-09-12T11:05:27.888Z,6.65
2018-09-12T11:07:55.752Z,6.12
2018-09-12T11:10:24.138Z,6.10
2018-09-12T11:12:51.973Z,6.35
2018-09-12T11:15:19.786Z,6.58
2018-09-12T11:17:47.580Z,6.60
2018-09-12T11:20:15.365Z,6.25
2018-09-12T11:22:43.211Z,6.40
2018-09-12T11:25:11.034Z,6.90
2018-09-12T11:27:38.797Z,5.75
2018-09-12T11:30:06.652Z,5.30
2018-09-12T11:32:34.449Z,6.28
2018-09-12T11:35:02.299Z,5.95
2018-09-12T11:37:30.149Z,5.95
2018-09-12T11:39:57.993Z,5.67
2018-09-12T11:42:25.861Z,5.78
2018-09-12T11:44:53.886Z,5.20
2018-09-12T11:47:22.177Z,5.87
2018-09-12T11:49:49.994Z,5.15
2018-09-12T11:52:17.886Z,5.72
2018-09-12T11:54:45.688Z,5.53
2018-09-12T11:57:13.455Z,6.35
2018-09-12T11:59:41.269Z,6.30
2018-09-12T12:02:09.127Z,5.83
2018-09-12T12:04:36.873Z,5.95
2018-09-12T12:07:04.702Z,5.95
2018-09-12T12:09:32.498Z,5.40
2018-09-12T12:12:00.269Z,6.03
2018-09-12T12:14:28.069Z,6.17
2018-09-12T12:16:55.957Z,6.03
2018-09-12T12:19:23.790Z,6.10
2018-09-12T12:21:51.662Z,6.00
2018-09-12T12:24:19.428Z,5.65
2018-09-12T12:26:47.216Z,6.08
2018-09-12T12:29:14.988Z,6.67
2018-09-12T12:31:42.762Z,6.00
2018-09-12T12:34:10.546Z,6.62
2018-09-12T12:36:38.297Z,6.20
2018-09-12T12:39:08.309Z,6.72
2018-09-12T12:41:36.064Z,7.00
2018-09-12T12:44:03.894Z,6.62
2018-09-12T12:46:31.685Z,6.22
2018-09-12T12:48:59.632Z,6.50
2018-09-12T12:51:27.914Z,6.08
2018-09-12T12:53:55.881Z,5.78
2018-09-12T12:56:23.761Z,6.00
2018-09-12T12:58:53.441Z,5.85
2018-09-12T13:01:21.773Z,5.83
2018-09-12T13:03:52.321Z,6.05
2018-09-12T13:06:20.160Z,6.37
2018-09-12T13:08:47.973Z,6.05
2018-09-12T13:11:15.795Z,6.50
2018-09-12T13:13:43.604Z,5.85
2018-09-12T13:16:11.382Z,5.95
2018-09-12T13:18:39.157Z,5.95
2018-09-12T13:21:06.952Z,5.78
2018-09-12T13:23:34.751Z,5.95
2018-09-12T13:26:02.567Z,5.37
2018-09-12T13:28:30.421Z,5.80
2018-09-12T13:30:58.281Z,5.10
2018-09-12T13:33:26.125Z,5.37
2018-09-12T13:35:54.128Z,5.12
2018-09-12T13:38:21.921Z,5.00
2018-09-12T13:40:49.669Z,5.08
2018-09-12T13:43:17.525Z,5.60
2018-09-12T13:45:45.353Z,5.67
2018-09-12T13:48:13.165Z,5.40
2018-09-12T13:50:40.953Z,5.62
2018-09-12T13:53:08.701Z,5.65
2018-09-12T13:55:36.585Z,5.20
2018-09-12T13:58:04.421Z,5.30
2018-09-12T14:00:32.201Z,5.72
2018-09-12T14:03:02.057Z,5.45
2018-09-12T14:05:30.193Z,5.47
2018-09-12T14:07:58.196Z,5.33
2018-09-12T14:10:26.156Z,5.53
2018-09-12T14:12:53.991Z,5.58
2018-09-12T14:15:21.891Z,5.53
2018-09-12T14:17:49.956Z,5.83
2018-09-12T14:20:17.788Z,5.47
2018-09-12T14:22:45.839Z,5.55
2018-09-12T14:25:13.961Z,5.78
2018-09-12T14:27:41.763Z,5.47
2018-09-12T14:30:09.549Z,5.97
2018-09-12T14:32:37.317Z,5.42
2018-09-12T14:35:05.161Z,5.67
2018-09-12T14:37:32.929Z,5.50
2018-09-12T14:40:00.811Z,5.62
2018-09-12T14:42:28.648Z,5.30
2018-09-12T14:44:56.711Z,5.58
2018-09-12T14:47:24.514Z,5.28
2018-09-12T14:49:52.305Z,5.12
2018-09-12T14:52:20.243Z,5.37
2018-09-12T14:54:48.009Z,5.28
2018-09-12T14:57:15.834Z,5.53
2018-09-12T14:59:43.637Z,5.42
2018-09-12T15:02:11.429Z,5.85
2018-09-12T15:04:39.215Z,5.67
2018-09-12T15:07:07.114Z,5.83
2018-09-12T15:09:34.876Z,5.30
2018-09-12T15:12:02.726Z,5.10
2018-09-12T15:14:30.844Z,5.05
2018-09-12T15:16:58.633Z,4.95
2018-09-12T15:19:26.439Z,5.17
2018-09-12T15:21:54.361Z,5.12
2018-09-12T15:24:22.120Z,5.00
2018-09-12T15:26:49.939Z,5.20
2018-09-12T15:29:17.692Z,4.87
2018-09-12T15:31:45.433Z,5.03
2018-09-12T15:34:13.252Z,4.97
2018-09-12T15:36:41.009Z,5.30
2018-09-12T15:39:09.867Z,5.70
2018-09-12T15:41:37.658Z,4.80
2018-09-12T15:44:05.441Z,5.05
2018-09-12T15:46:33.261Z,4.53
2018-09-12T15:49:01.020Z,4.80
2018-09-12T15:51:28.910Z,4.75
2018-09-12T15:53:56.787Z,4.72
2018-09-12T15:56:24.594Z,4.60
2018-09-12T15:58:52.425Z,4.45
2018-09-12T16:01:20.197Z,4.75
2018-09-12T16:03:49.334Z,4.50
2018-09-12T16:06:17.084Z,4.60
2018-09-12T16:08:44.862Z,4.58
2018-09-12T16:11:12.641Z,4.58
2018-09-12T16:13:40.413Z,4.42
2018-09-12T16:16:08.193Z,4.28
2018-09-12T16:18:36.785Z,4.58
2018-09-12T16:21:04.705Z,4.55
2018-09-12T16:23:32.543Z,4.28
2018-09-12T16:26:00.394Z,4.35
2018-09-12T16:28:28.224Z,4.03
2018-09-12T16:30:56.265Z,4.20
2018-09-12T16:33:24.117Z,4.65
2018-09-12T16:35:51.944Z,4.55
2018-09-12T16:38:19.696Z,4.37
2018-09-12T16:40:47.507Z,3.95
2018-09-12T16:43:15.377Z,4.55
2018-09-12T16:45:43.555Z,4.45
2018-09-12T16:48:12.665Z,4.70
2018-09-12T16:50:41.638Z,4.62
2018-09-12T16:53:09.645Z,4.58
2018-09-12T16:55:37.492Z,5.15
2018-09-12T16:58:05.309Z,5.22
2018-09-12T17:00:33.138Z,5.40
2018-09-12T17:03:00.999Z,5.83
2018-09-12T17:05:28.793Z,5.10
2018-09-12T17:07:56.880Z,5.53
2018-09-12T17:10:24.717Z,5.63
2018-09-12T17:12:52.540Z,5.40
2018-09-12T17:15:21.020Z,4.80
2018-09-12T17:17:49.669Z,4.90
2018-09-12T17:20:17.549Z,5.50
2018-09-12T17:22:45.296Z,5.17
2018-09-12T17:25:13.096Z,4.77
2018-09-12T17:27:40.865Z,5.30
2018-09-12T17:30:08.677Z,5.10
2018-09-12T17:32:36.468Z,4.93
2018-09-12T17:35:04.313Z,5.30
2018-09-12T17:37:32.205Z,5.10
2018-09-12T17:40:00.014Z,5.00
2018-09-12T17:42:28.960Z,4.30
2018-09-12T17:44:57.001Z,5.20
2018-09-12T17:47:24.753Z,4.93
2018-09-12T17:49:52.572Z,4.73
2018-09-12T17:52:20.351Z,5.10
2018-09-12T17:54:56.146Z,4.60
2018-09-12T17:57:23.979Z,4.53
2018-09-12T17:59:51.894Z,4.40
2018-09-12T18:02:20.941Z,4.20
2018-09-12T18:04:50.849Z,4.60
2018-09-12T18:07:18.725Z,4.73
2018-09-12T18:09:46.533Z,4.53
2018-09-12T18:12:14.377Z,4.90
2018-09-12T18:14:42.204Z,4.60
2018-09-12T18:17:09.991Z,4.93
2018-09-12T18:19:37.772Z,5.03
2018-09-12T18:22:05.684Z,5.17
2018-09-12T18:24:39.386Z,5.27
2018-09-12T18:27:07.344Z,4.97
2018-09-12T18:29:35.165Z,5.37
2018-09-12T18:32:02.997Z,5.30
2018-09-12T18:34:30.932Z,5.00
2018-09-12T18:36:58.813Z,5.30
2018-09-12T18:39:26.860Z,5.17
2018-09-12T18:41:54.703Z,5.00
2018-09-12T18:44:22.526Z,5.43
2018-09-12T18:46:50.424Z,4.93
2018-09-12T18:49:20.389Z,5.40
2018-09-12T18:51:48.173Z,5.30
2018-09-12T18:54:15.980Z,5.70
2018-09-12T18:56:43.772Z,5.30
2018-09-12T18:59:11.583Z,5.07
2018-09-12T19:01:39.341Z,5.43
2018-09-12T19:04:07.458Z,4.90
2018-09-12T19:06:35.480Z,5.27
2018-09-12T19:09:04.367Z,5.30
2018-09-12T19:11:32.144Z,5.60
2018-09-12T19:13:59.977Z,5.60
2018-09-12T19:16:27.895Z,5.40
2018-09-12T19:18:55.840Z,4.73
2018-09-12T19:21:23.901Z,5.07
2018-09-12T19:23:51.633Z,4.97
2018-09-12T19:26:19.459Z,5.17
2018-09-12T19:28:47.241Z,5.23
2018-09-12T19:31:15.053Z,5.77
2018-09-12T19:33:42.821Z,4.73
2018-09-12T19:36:10.684Z,4.90
2018-09-12T19:38:38.477Z,5.80
2018-09-12T19:41:06.589Z,5.67
2018-09-12T19:43:34.381Z,5.40
2018-09-12T19:46:02.237Z,5.20
2018-09-12T19:48:30.097Z,5.00
2018-09-12T19:51:00.189Z,5.00
2018-09-12T19:53:28.093Z,5.30
2018-09-12T19:55:56.220Z,4.83
2018-09-12T19:58:23.966Z,5.50
2018-09-12T20:00:51.778Z,5.33
2018-09-12T20:03:19.604Z,5.23
2018-09-12T20:05:47.465Z,5.50
2018-09-12T20:08:15.466Z,6.00
2018-09-12T20:10:43.342Z,5.30
2018-09-12T20:13:11.869Z,5.67
2018-09-12T20:15:39.810Z,5.77
2018-09-12T20:18:07.793Z,5.60
2018-09-12T20:20:35.742Z,5.67
2018-09-12T20:23:03.809Z,5.30
2018-09-12T20:25:31.899Z,5.87
2018-09-12T20:27:59.827Z,5.10
2018-09-12T20:30:27.877Z,5.43
2018-09-12T20:32:55.931Z,5.80
2018-09-12T20:35:23.903Z,5.33
2018-09-12T20:37:51.897Z,5.70
2018-09-12T20:40:26.582Z,5.70
2018-09-12T20:42:54.642Z,5.10
2018-09-12T20:45:22.936Z,5.60
2018-09-12T20:47:51.006Z,5.67
2018-09-12T20:50:19.020Z,5.30
2018-09-12T20:52:49.078Z,5.27
2018-09-12T20:55:17.030Z,5.67
2018-09-12T20:57:44.984Z,5.70
2018-09-12T21:00:12.905Z,5.53
2018-09-12T21:02:40.815Z,5.20
2018-09-12T21:05:09.112Z,5.33
2018-09-12T21:07:36.989Z,5.50
2018-09-12T21:10:05.469Z,5.47
2018-09-12T21:12:33.392Z,5.80
2018-09-12T21:15:01.484Z,5.23
2018-09-12T21:17:29.471Z,5.57
2018-09-12T21:19:57.397Z,5.10
2018-09-12T21:22:25.614Z,5.53
2018-09-12T21:24:53.657Z,5.50
2018-09-12T21:27:21.492Z,5.63
2018-09-12T21:29:49.326Z,4.83
2018-09-12T21:32:17.359Z,5.43
2018-09-12T21:34:46.597Z,5.30
2018-09-12T21:37:14.501Z,5.40
2018-09-12T21:39:42.624Z,4.97
2018-09-12T21:42:10.608Z,5.63
2018-09-12T21:44:38.673Z,5.23
2018-09-12T21:47:06.514Z,5.27
2018-09-12T21:49:34.637Z,5.27
2018-09-12T21:52:02.867Z,5.43
2018-09-12T21:54:30.966Z,5.20
2018-09-12T21:56:59.377Z,5.40
2018-09-12T21:59:27.746Z,5.80
2018-09-12T22:01:55.807Z,5.40
2018-09-12T22:04:23.683Z,5.03
2018-09-12T22:06:51.732Z,5.80
2018-09-12T22:09:19.755Z,5.87
2018-09-12T22:11:47.616Z,5.60
2018-09-12T22:14:15.613Z,5.30
2018-09-12T22:16:43.472Z,5.40
2018-09-12T22:19:11.333Z,5.63
2018-09-12T22:21:39.177Z,5.80
2018-09-12T22:24:07.109Z,5.27
2018-09-12T22:26:34.984Z,5.23
2018-09-12T22:29:02.853Z,5.20
2018-09-12T22:31:30.767Z,5.23
2018-09-12T22:33:58.840Z,5.70
2018-09-12T22:36:33.299Z,5.53
2018-09-12T22:39:07.696Z,5.80
2018-09-12T22:41:35.769Z,5.77
2018-09-12T22:44:03.822Z,5.50
2018-09-12T22:46:35.485Z,5.93
2018-09-12T22:49:05.725Z,6.00
2018-09-12T22:51:33.673Z,5.73
2018-09-12T22:54:03.634Z,5.53
2018-09-12T22:56:39.298Z,5.57
2018-09-12T22:59:07.189Z,5.70
2018-09-12T23:01:35.182Z,5.77
2018-09-12T23:04:03.109Z,6.10
2018-09-12T23:06:32.244Z,5.57
2018-09-12T23:09:00.696Z,5.77
2018-09-12T23:11:28.717Z,5.40
2018-09-12T23:13:56.564Z,5.83
2018-09-12T23:16:24.476Z,6.13
2018-09-12T23:18:52.313Z,6.47
2018-09-12T23:21:20.180Z,6.20
2018-09-12T23:23:48.333Z,6.80
2018-09-12T23:26:16.361Z,6.70
2018-09-12T23:28:44.424Z,6.33
2018-09-12T23:31:12.457Z,6.00
2018-09-12T23:33:40.514Z,6.53
2018-09-12T23:36:08.528Z,6.23
2018-09-12T23:38:36.695Z,5.90
2018-09-12T23:41:04.773Z,5.73
2018-09-12T23:43:32.755Z,6.00
2018-09-12T23:46:00.738Z,5.83
2018-09-12T23:48:28.769Z,6.80
2018-09-12T23:50:56.750Z,6.23
2018-09-12T23:53:25.042Z,7.47
2018-09-12T23:55:53.018Z,6.50
2018-09-12T23:58:20.937Z,7.03
